Time;durP1;ratioP1;P1;durP2;ratioP2;P2;SDS_P1;SDS_P2;PMS_P1;PMS_P2;Temp;Humidity;BMP_temperature;BMP_pressure;BME280_temperature;BME280_humidity;BME280_pressure;Samples;Min_cycle;Max_cycle;Signal;HPM_P1;HPM_P2
2022/11/16 05:00:48;;;;;;;18.17;16.58;;;;;;;;;;5850665;22;20516;-85
2022/11/16 05:03:14;;;;;;;19.83;17.92;;;;;;;;;;5048526;28;20397;-85
2022/11/16 05:05:40;;;;;;;17.33;15.82;;;;;;;;;;5057533;28;20421;-84
2022/11/16 05:08:06;;;;;;;18.85;17.10;;;;;;;;;;5052055;28;20370;-84
2022/11/16 05:10:32;;;;;;;18.08;16.42;;;;;;;;;;5057615;28;20383;-85
2022/11/16 05:12:58;;;;;;;17.17;15.60;;;;;;;;;;5051750;28;20467;-85
2022/11/16 05:15:24;;;;;;;16.00;14.73;;;;;;;;;;5050400;28;20471;-85
2022/11/16 05:17:50;;;;;;;16.45;14.98;;;;;;;;;;5051583;28;20385;-84
2022/11/16 05:23:01;;;;;;;16.98;15.40;;;;;;;;;;5024261;28;20463;-84
2022/11/16 05:25:27;;;;;;;16.20;14.90;;;;;;;;;;5051695;28;20934;-85
2022/11/16 05:27:53;;;;;;;15.00;13.82;;;;;;;;;;5051611;28;20370;-85
2022/11/16 05:30:19;;;;;;;14.32;13.18;;;;;;;;;;5041679;28;20489;-85
2022/11/16 05:32:45;;;;;;;15.30;14.00;;;;;;;;;;5047907;28;20380;-84
2022/11/16 05:35:11;;;;;;;13.02;12.07;;;;;;;;;;5047886;28;20471;-85
2022/11/16 05:37:37;;;;;;;14.55;13.45;;;;;;;;;;5059546;28;20386;-84
2022/11/16 05:40:03;;;;;;;14.05;12.93;;;;;;;;;;5063538;28;20385;-85
2022/11/16 05:42:29;;;;;;;13.83;12.63;;;;;;;;;;5067212;28;20738;-84
2022/11/16 05:44:55;;;;;;;15.18;13.88;;;;;;;;;;5070257;28;20390;-84
2022/11/16 05:47:21;;;;;;;15.20;13.90;;;;;;;;;;5062440;28;20413;-84
2022/11/16 05:49:47;;;;;;;14.38;13.25;;;;;;;;;;5057299;28;20384;-85
2022/11/16 05:52:13;;;;;;;13.45;12.35;;;;;;;;;;5056483;28;20385;-84
2022/11/16 05:54:39;;;;;;;13.48;12.48;;;;;;;;;;5055431;28;20381;-85
2022/11/16 05:57:05;;;;;;;15.50;14.00;;;;;;;;;;5045339;28;20940;-86
2022/11/16 05:59:31;;;;;;;15.95;14.45;;;;;;;;;;5055106;28;20472;-84
2022/11/16 06:01:57;;;;;;;17.27;15.60;;;;;;;;;;5054468;28;20455;-84
2022/11/16 06:04:23;;;;;;;18.63;16.70;;;;;;;;;;5054768;28;20381;-84
2022/11/16 06:06:49;;;;;;;20.13;17.90;;;;;;;;;;5054523;28;20506;-84
2022/11/16 06:09:15;;;;;;;19.97;17.87;;;;;;;;;;5054051;28;20374;-85
2022/11/16 06:11:41;;;;;;;20.50;18.42;;;;;;;;;;5048929;28;20408;-84
2022/11/16 06:14:07;;;;;;;20.52;18.25;;;;;;;;;;5054510;28;20457;-85
2022/11/16 06:16:33;;;;;;;18.90;17.20;;;;;;;;;;5054494;28;20384;-85
2022/11/16 06:18:59;;;;;;;20.17;18.00;;;;;;;;;;5054394;28;20530;-85
2022/11/16 06:21:25;;;;;;;19.35;17.45;;;;;;;;;;5054457;28;20385;-85
2022/11/16 06:23:51;;;;;;;18.80;16.77;;;;;;;;;;5054467;28;20385;-85
2022/11/16 06:26:17;;;;;;;19.33;17.42;;;;;;;;;;5045062;28;20395;-85
2022/11/16 06:28:43;;;;;;;18.23;16.52;;;;;;;;;;5048044;28;20381;-85
2022/11/16 06:31:09;;;;;;;19.17;17.25;;;;;;;;;;5054107;28;20384;-85
2022/11/16 06:33:35;;;;;;;19.88;17.90;;;;;;;;;;5042288;28;20433;-85
2022/11/16 06:36:01;;;;;;;20.20;18.25;;;;;;;;;;5051982;28;20378;-84
2022/11/16 06:38:27;;;;;;;19.90;17.83;;;;;;;;;;5054465;28;20774;-86
2022/11/16 06:40:55;;;;;;;20.10;18.10;;;;;;;;;;5054004;28;20374;-85
2022/11/16 06:43:21;;;;;;;20.55;18.42;;;;;;;;;;5054097;28;20420;-85
2022/11/16 06:45:48;;;;;;;20.77;18.58;;;;;;;;;;5053950;28;20444;-84
2022/11/16 06:48:14;;;;;;;20.85;18.67;;;;;;;;;;5054432;28;20381;-85
2022/11/16 06:50:40;;;;;;;20.48;18.30;;;;;;;;;;5053892;28;20439;-85
2022/11/16 06:53:06;;;;;;;20.55;18.38;;;;;;;;;;5053871;28;20385;-86
2022/11/16 06:55:32;;;;;;;22.38;18.48;;;;;;;;;;5051902;28;20804;-86
2022/11/16 06:57:58;;;;;;;20.58;18.10;;;;;;;;;;5037937;28;20395;-85
2022/11/16 07:00:24;;;;;;;20.55;18.50;;;;;;;;;;5041760;28;20417;-85
2022/11/16 07:02:50;;;;;;;20.75;18.52;;;;;;;;;;5053549;28;20405;-85
2022/11/16 07:05:16;;;;;;;19.90;17.88;;;;;;;;;;5053738;28;20381;-85
2022/11/16 07:07:42;;;;;;;19.97;17.97;;;;;;;;;;5051558;28;20789;-85
2022/11/16 07:10:08;;;;;;;18.55;16.85;;;;;;;;;;5051809;28;20461;-84
2022/11/16 07:12:34;;;;;;;18.40;16.70;;;;;;;;;;5038864;28;20410;-85
2022/11/16 07:15:00;;;;;;;17.92;16.27;;;;;;;;;;5046136;28;20459;-84
2022/11/16 07:17:26;;;;;;;17.70;15.98;;;;;;;;;;5048544;28;20383;-85
2022/11/16 07:19:52;;;;;;;18.35;16.67;;;;;;;;;;5044197;28;20858;-85
2022/11/16 07:22:18;;;;;;;16.35;14.85;;;;;;;;;;5053057;28;20430;-84
2022/11/16 07:24:44;;;;;;;17.10;15.60;;;;;;;;;;5053253;28;20472;-85
2022/11/16 07:27:10;;;;;;;17.92;16.23;;;;;;;;;;5052986;28;20484;-85
2022/11/16 07:29:36;;;;;;;17.98;16.30;;;;;;;;;;5057702;28;20781;-84
2022/11/16 07:32:02;;;;;;;18.58;16.67;;;;;;;;;;5051616;28;20389;-84
2022/11/16 07:34:28;;;;;;;16.75;15.07;;;;;;;;;;5053007;28;20464;-84
2022/11/16 07:36:54;;;;;;;15.63;14.23;;;;;;;;;;5049675;28;20468;-84
2022/11/16 07:39:20;;;;;;;14.85;13.65;;;;;;;;;;5053117;28;20870;-84
2022/11/16 07:41:49;;;;;;;15.27;13.75;;;;;;;;;;5052945;28;20386;-85
2022/11/16 07:44:15;;;;;;;15.98;14.52;;;;;;;;;;5052963;28;20377;-86
2022/11/16 07:46:41;;;;;;;16.10;14.73;;;;;;;;;;5052777;28;20503;-85
2022/11/16 07:49:07;;;;;;;14.93;13.63;;;;;;;;;;5039569;28;20386;-85
2022/11/16 07:51:33;;;;;;;15.50;14.02;;;;;;;;;;5052238;28;20377;-83
2022/11/16 07:53:59;;;;;;;13.80;12.52;;;;;;;;;;5054303;28;20374;-82
2022/11/16 07:56:25;;;;;;;13.65;12.38;;;;;;;;;;5048240;28;20955;-83
2022/11/16 07:58:51;;;;;;;14.40;13.15;;;;;;;;;;5052558;28;20382;-83
2022/11/16 08:01:18;;;;;;;14.02;12.77;;;;;;;;;;5047650;28;20459;-82
2022/11/16 08:03:45;;;;;;;15.20;13.75;;;;;;;;;;5043521;28;20394;-82
2022/11/16 08:06:15;;;;;;;12.70;11.52;;;;;;;;;;5032246;28;20735;-84
2022/11/16 08:08:42;;;;;;;12.85;11.68;;;;;;;;;;5026086;28;20372;-84
2022/11/16 08:11:11;;;;;;;12.77;11.65;;;;;;;;;;5052405;28;20405;-81
2022/11/16 08:13:38;;;;;;;12.88;11.80;;;;;;;;;;5049531;28;20369;-81
2022/11/16 08:16:08;;;;;;;12.02;11.02;;;;;;;;;;5041717;28;20468;-82
2022/11/16 08:18:35;;;;;;;11.38;10.48;;;;;;;;;;5052844;28;20456;-82
2022/11/16 08:21:01;;;;;;;11.00;9.95;;;;;;;;;;5052226;28;20412;-81
2022/11/16 08:23:27;;;;;;;10.53;9.60;;;;;;;;;;5052247;28;20411;-81
2022/11/16 08:26:13;;;;;;;10.15;9.20;;;;;;;;;;5047821;28;20407;-82
2022/11/16 08:28:39;;;;;;;9.85;8.95;;;;;;;;;;5026333;28;20458;-83
2022/11/16 08:31:09;;;;;;;8.73;8.02;;;;;;;;;;5051156;28;20388;-83
2022/11/16 08:33:35;;;;;;;10.48;9.68;;;;;;;;;;5043268;28;20390;-85
2022/11/16 08:36:05;;;;;;;10.40;9.43;;;;;;;;;;5049872;28;20390;-84
2022/11/16 08:38:31;;;;;;;11.02;9.93;;;;;;;;;;5052140;28;20469;-83
2022/11/16 08:40:56;;;;;;;10.90;10.10;;;;;;;;;;5052160;28;20409;-84
2022/11/16 08:43:22;;;;;;;11.20;10.30;;;;;;;;;;5052202;28;20478;-84
2022/11/16 08:45:48;;;;;;;11.60;10.70;;;;;;;;;;5051977;28;20413;-86
2022/11/16 08:48:15;;;;;;;11.43;10.38;;;;;;;;;;5052115;28;20380;-86
2022/11/16 08:50:41;;;;;;;10.38;9.43;;;;;;;;;;5052100;28;20413;-84
2022/11/16 08:53:07;;;;;;;9.57;8.77;;;;;;;;;;5045495;28;20418;-89
2022/11/16 08:55:33;;;;;;;9.40;8.55;;;;;;;;;;5044476;28;20859;-86
2022/11/16 08:57:59;;;;;;;7.38;6.78;;;;;;;;;;5048465;28;20383;-89
2022/11/16 09:00:25;;;;;;;8.67;7.40;;;;;;;;;;5051837;28;20381;-86
2022/11/16 09:02:51;;;;;;;6.88;6.28;;;;;;;;;;5037740;28;20399;-88
2022/11/16 09:05:17;;;;;;;6.75;6.05;;;;;;;;;;5034475;28;20921;-85
2022/11/16 09:07:44;;;;;;;7.13;6.43;;;;;;;;;;5030209;28;20453;-86
2022/11/16 09:10:11;;;;;;;5.60;5.00;;;;;;;;;;5049870;28;20491;-86
2022/11/16 09:12:37;;;;;;;5.47;4.97;;;;;;;;;;5052817;28;20493;-87
2022/11/16 09:15:04;;;;;;;5.72;5.22;;;;;;;;;;5062851;28;20397;-86
2022/11/16 09:17:30;;;;;;;7.80;7.10;;;;;;;;;;5061974;28;20388;-87
2022/11/16 09:19:56;;;;;;;5.25;4.75;;;;;;;;;;5069002;28;20385;-86
2022/11/16 09:22:22;;;;;;;6.07;5.65;;;;;;;;;;5061503;28;20381;-85
2022/11/16 09:24:48;;;;;;;4.80;4.40;;;;;;;;;;5057824;28;20414;-87
2022/11/16 09:27:15;;;;;;;4.65;4.30;;;;;;;;;;5056863;28;20907;-88
2022/11/16 09:29:41;;;;;;;5.35;4.07;;;;;;;;;;5056468;28;20490;-85
2022/11/16 09:32:07;;;;;;;5.47;3.80;;;;;;;;;;5055464;28;20866;-87
2022/11/16 09:34:33;;;;;;;4.00;3.60;;;;;;;;;;5055691;28;20383;-88
2022/11/16 09:37:00;;;;;;;3.50;3.20;;;;;;;;;;5055487;28;20381;-87
2022/11/16 09:39:31;;;;;;;4.55;3.28;;;;;;;;;;5055458;28;20385;-88
2022/11/16 09:42:05;;;;;;;5.10;3.40;;;;;;;;;;5055724;28;20726;-85
2022/11/16 09:44:37;;;;;;;3.70;3.03;;;;;;;;;;5055161;28;20382;-87
2022/11/16 09:47:03;;;;;;;4.80;3.17;;;;;;;;;;5055365;28;20448;-87
2022/11/16 09:49:35;;;;;;;3.72;3.00;;;;;;;;;;5055203;28;20811;-85
2022/11/16 09:52:08;;;;;;;3.35;3.03;;;;;;;;;;5055068;28;20392;-88
2022/11/16 09:54:37;;;;;;;4.70;2.88;;;;;;;;;;5055068;28;20388;-88
2022/11/16 09:57:06;;;;;;;5.40;3.17;;;;;;;;;;5049950;28;20377;-87
2022/11/16 09:59:43;;;;;;;3.60;2.80;;;;;;;;;;5054877;28;20464;-87
2022/11/16 10:02:24;;;;;;;3.85;2.67;;;;;;;;;;5054835;28;20401;-86
2022/11/16 10:04:53;;;;;;;4.22;3.65;;;;;;;;;;5053679;28;20405;-86
2022/11/16 10:07:24;;;;;;;2.88;2.45;;;;;;;;;;5054607;28;20454;-86
2022/11/16 10:09:50;;;;;;;4.03;2.10;;;;;;;;;;5038826;28;20388;-86
2022/11/16 10:12:16;;;;;;;3.30;1.80;;;;;;;;;;5052840;28;20381;-86
2022/11/16 10:14:45;;;;;;;3.13;1.70;;;;;;;;;;5054918;28;20389;-87
2022/11/16 10:17:14;;;;;;;5.25;1.85;;;;;;;;;;5045697;28;20386;-86
2022/11/16 10:19:46;;;;;;;3.30;2.00;;;;;;;;;;5054253;28;20403;-86
2022/11/16 10:22:31;;;;;;;2.55;1.73;;;;;;;;;;5053126;28;20906;-86
2022/11/16 10:24:58;;;;;;;3.00;1.50;;;;;;;;;;5054357;28;20390;-86
2022/11/16 10:27:27;;;;;;;2.60;1.85;;;;;;;;;;5049298;28;20494;-86
2022/11/16 10:30:02;;;;;;;4.03;1.88;;;;;;;;;;5054253;28;20886;-87
2022/11/16 10:32:32;;;;;;;2.50;1.70;;;;;;;;;;5054220;28;20374;-86
2022/11/16 10:35:10;;;;;;;3.05;1.63;;;;;;;;;;5054303;28;20785;-87
2022/11/16 10:37:59;;;;;;;4.73;1.60;;;;;;;;;;5054315;28;20472;-87
2022/11/16 10:40:30;;;;;;;3.53;1.80;;;;;;;;;;5054227;28;20430;-86
2022/11/16 10:43:11;;;;;;;3.50;1.50;;;;;;;;;;5053947;28;20862;-86
2022/11/16 10:45:45;;;;;;;4.15;1.88;;;;;;;;;;5054009;28;20472;-88
2022/11/16 10:48:13;;;;;;;2.33;1.27;;;;;;;;;;5054069;28;20385;-87
2022/11/16 10:50:39;;;;;;;3.05;1.70;;;;;;;;;;5053958;28;20400;-86
2022/11/16 10:53:05;;;;;;;4.50;1.52;;;;;;;;;;5053783;28;20382;-87
2022/11/16 10:55:31;;;;;;;5.35;1.92;;;;;;;;;;5052731;28;20409;-86
2022/11/16 10:58:05;;;;;;;3.13;1.40;;;;;;;;;;5049972;28;20377;-87
2022/11/16 11:00:40;;;;;;;3.85;1.60;;;;;;;;;;5043250;28;20387;-86
2022/11/16 11:03:09;;;;;;;3.40;1.40;;;;;;;;;;5048506;28;20463;-85
2022/11/16 11:05:36;;;;;;;4.72;1.50;;;;;;;;;;5053986;28;20495;-87
2022/11/16 11:08:06;;;;;;;3.63;1.50;;;;;;;;;;5053653;28;20460;-86
2022/11/16 11:10:37;;;;;;;3.45;1.40;;;;;;;;;;5053520;28;20374;-87
2022/11/16 11:13:03;;;;;;;3.07;1.20;;;;;;;;;;5053626;28;20384;-86
2022/11/16 11:15:29;;;;;;;3.95;1.30;;;;;;;;;;5053499;28;20382;-86
2022/11/16 11:18:10;;;;;;;2.83;1.20;;;;;;;;;;5058808;28;20389;-86
2022/11/16 11:20:37;;;;;;;4.63;1.20;;;;;;;;;;5039307;28;20379;-86
2022/11/16 11:23:11;;;;;;;4.07;1.20;;;;;;;;;;5053444;28;20386;-87
2022/11/16 11:25:47;;;;;;;2.88;1.27;;;;;;;;;;5053355;28;20370;-86
2022/11/16 11:28:16;;;;;;;3.10;1.10;;;;;;;;;;5054348;28;20416;-86
2022/11/16 11:30:51;;;;;;;3.45;1.10;;;;;;;;;;5052299;28;20377;-88
2022/11/16 11:33:20;;;;;;;3.60;1.30;;;;;;;;;;5053127;28;20394;-87
2022/11/16 11:35:55;;;;;;;3.63;1.30;;;;;;;;;;5051391;28;20449;-86
2022/11/16 11:38:21;;;;;;;3.42;1.40;;;;;;;;;;5042976;28;20427;-86
2022/11/16 11:40:56;;;;;;;3.78;1.50;;;;;;;;;;5052794;28;20389;-87
2022/11/16 11:43:23;;;;;;;3.92;1.20;;;;;;;;;;5053297;28;20850;-85
2022/11/16 11:45:53;;;;;;;3.28;1.27;;;;;;;;;;5052753;28;20421;-86
2022/11/16 11:48:28;;;;;;;4.28;1.50;;;;;;;;;;5053204;28;20885;-86
2022/11/16 11:50:55;;;;;;;2.78;1.10;;;;;;;;;;5052660;28;20381;-86
2022/11/16 11:53:24;;;;;;;3.78;1.20;;;;;;;;;;5052719;28;20381;-88
2022/11/16 11:55:57;;;;;;;2.63;1.00;;;;;;;;;;5049106;28;20433;-85
2022/11/16 11:58:28;;;;;;;1.80;0.75;;;;;;;;;;5052612;28;20382;-86
2022/11/16 12:01:13;;;;;;;3.50;1.05;;;;;;;;;;5052476;28;20898;-87
2022/11/16 12:03:57;;;;;;;2.13;0.90;;;;;;;;;;5040215;28;20877;-86
2022/11/16 12:06:36;;;;;;;1.70;0.70;;;;;;;;;;5048177;28;20407;-86
2022/11/16 12:09:07;;;;;;;2.70;0.70;;;;;;;;;;5052862;28;20388;-85
2022/11/16 12:11:36;;;;;;;1.83;0.70;;;;;;;;;;5052556;28;20456;-85
2022/11/16 12:14:02;;;;;;;3.47;0.90;;;;;;;;;;5052391;28;20400;-86
2022/11/16 12:16:28;;;;;;;4.15;1.00;;;;;;;;;;5052461;28;20866;-85
2022/11/16 12:19:17;;;;;;;2.92;0.80;;;;;;;;;;5052557;28;20483;-85
2022/11/16 12:22:02;;;;;;;2.53;1.00;;;;;;;;;;5049289;28;20374;-87
2022/11/16 12:25:01;;;;;;;3.40;1.10;;;;;;;;;;5033451;28;20465;-85
2022/11/16 12:27:29;;;;;;;1.80;0.77;;;;;;;;;;5040131;28;20501;-85
2022/11/16 12:30:01;;;;;;;2.90;1.00;;;;;;;;;;5052235;28;20416;-86
2022/11/16 12:32:34;;;;;;;3.17;0.93;;;;;;;;;;5052148;28;20384;-85
2022/11/16 12:35:00;;;;;;;3.25;0.98;;;;;;;;;;5052414;28;20401;-86
2022/11/16 12:37:33;;;;;;;2.55;0.95;;;;;;;;;;5052471;28;20409;-86
2022/11/16 12:40:08;;;;;;;2.05;1.00;;;;;;;;;;5052619;28;20373;-85
2022/11/16 12:42:45;;;;;;;4.28;0.77;;;;;;;;;;5038153;28;20406;-86
2022/11/16 12:45:31;;;;;;;2.35;0.75;;;;;;;;;;5050184;28;20381;-85
2022/11/16 12:48:16;;;;;;;3.38;1.08;;;;;;;;;;5072707;28;20392;-86
2022/11/16 12:50:48;;;;;;;2.72;0.80;;;;;;;;;;5072841;28;20444;-86
2022/11/16 12:53:25;;;;;;;2.03;0.88;;;;;;;;;;5076603;28;20506;-85
2022/11/16 12:56:00;;;;;;;3.40;0.85;;;;;;;;;;5063361;28;20376;-85
2022/11/16 12:58:51;;;;;;;1.73;0.70;;;;;;;;;;5050937;28;20377;-85
2022/11/16 13:01:21;;;;;;;3.30;0.88;;;;;;;;;;5059605;28;20393;-87
2022/11/16 13:03:50;;;;;;;1.75;0.63;;;;;;;;;;5058173;28;20381;-86
2022/11/16 13:06:18;;;;;;;2.83;0.80;;;;;;;;;;5053641;28;20440;-87
2022/11/16 13:09:03;;;;;;;1.38;0.65;;;;;;;;;;5043766;28;20381;-87
2022/11/16 13:11:31;;;;;;;2.17;0.60;;;;;;;;;;5056594;28;20381;-87
2022/11/16 13:14:02;;;;;;;2.65;0.85;;;;;;;;;;5056606;28;20499;-87
2022/11/16 13:16:28;;;;;;;2.33;0.95;;;;;;;;;;5056639;28;20712;-87
2022/11/16 13:18:55;;;;;;;3.03;1.00;;;;;;;;;;5056185;28;20393;-86
2022/11/16 13:21:27;;;;;;;2.13;1.00;;;;;;;;;;5055651;28;20452;-85
2022/11/16 13:23:58;;;;;;;3.38;0.90;;;;;;;;;;5055678;28;20885;-86
2022/11/16 13:26:37;;;;;;;3.40;1.00;;;;;;;;;;5055937;28;20420;-86
2022/11/16 13:29:06;;;;;;;2.35;1.10;;;;;;;;;;5055631;28;20397;-86
2022/11/16 13:31:42;;;;;;;2.87;1.03;;;;;;;;;;5055717;28;20392;-87
2022/11/16 13:34:13;;;;;;;2.83;0.80;;;;;;;;;;5055706;28;20462;-86
2022/11/16 13:36:43;;;;;;;3.80;0.90;;;;;;;;;;5055594;28;20389;-86
2022/11/16 13:39:11;;;;;;;2.42;0.70;;;;;;;;;;5055297;28;20848;-86
2022/11/16 13:41:38;;;;;;;1.80;1.10;;;;;;;;;;5055580;28;20384;-86
2022/11/16 13:44:10;;;;;;;3.10;0.90;;;;;;;;;;5055384;28;20393;-86
2022/11/16 13:46:42;;;;;;;2.75;1.05;;;;;;;;;;5055463;28;20401;-86
2022/11/16 13:49:18;;;;;;;2.55;0.90;;;;;;;;;;5055409;28;20397;-86
2022/11/16 13:51:50;;;;;;;4.07;0.75;;;;;;;;;;5055117;28;20373;-88
2022/11/16 13:54:16;;;;;;;1.63;0.60;;;;;;;;;;5054395;28;20377;-86
2022/11/16 13:56:49;;;;;;;3.03;1.10;;;;;;;;;;5050081;28;20451;-86
2022/11/16 13:59:15;;;;;;;2.85;1.15;;;;;;;;;;5055128;28;20825;-86
2022/11/16 14:01:56;;;;;;;2.67;1.20;;;;;;;;;;5055007;28;20451;-86
2022/11/16 14:04:54;;;;;;;2.33;1.30;;;;;;;;;;5055039;28;20385;-85
2022/11/16 14:07:41;;;;;;;1.77;0.77;;;;;;;;;;5043010;28;20498;-85
2022/11/16 14:10:08;;;;;;;3.27;0.97;;;;;;;;;;5054739;28;20464;-86
2022/11/16 14:12:37;;;;;;;1.77;0.85;;;;;;;;;;5043120;28;20379;-86
2022/11/16 14:15:20;;;;;;;2.05;0.98;;;;;;;;;;5048133;28;20787;-89
2022/11/16 14:17:51;;;;;;;1.92;1.00;;;;;;;;;;5054632;28;20430;-86
2022/11/16 14:20:44;;;;;;;1.88;0.95;;;;;;;;;;5054643;28;20532;-88
2022/11/16 14:23:22;;;;;;;1.58;0.90;;;;;;;;;;5053417;28;20861;-89
2022/11/16 14:25:53;;;;;;;3.80;0.90;;;;;;;;;;5039891;28;20386;-88
2022/11/16 14:28:31;;;;;;;3.78;0.95;;;;;;;;;;5054529;28;20369;-86
2022/11/16 14:31:08;;;;;;;3.60;1.20;;;;;;;;;;5054311;28;20381;-85
2022/11/16 14:33:35;;;;;;;2.20;1.02;;;;;;;;;;5054512;28;20385;-87
2022/11/16 14:36:02;;;;;;;2.03;1.23;;;;;;;;;;5054245;28;20420;-86
2022/11/16 14:38:31;;;;;;;1.67;0.80;;;;;;;;;;5054177;28;20385;-86
2022/11/16 14:40:58;;;;;;;2.42;0.80;;;;;;;;;;5054059;28;20382;-86
2022/11/16 14:43:44;;;;;;;3.07;1.07;;;;;;;;;;5054073;28;20382;-86
2022/11/16 14:46:27;;;;;;;3.50;1.00;;;;;;;;;;5039894;28;20523;-86
2022/11/16 14:48:57;;;;;;;2.60;0.90;;;;;;;;;;5054232;28;20750;-87
2022/11/16 14:51:36;;;;;;;1.92;0.90;;;;;;;;;;5053828;28;20382;-87
2022/11/16 14:54:12;;;;;;;2.85;0.80;;;;;;;;;;5053886;28;20420;-87
2022/11/16 14:56:54;;;;;;;3.40;0.90;;;;;;;;;;5049045;28;20374;-86
2022/11/16 14:59:20;;;;;;;2.80;1.00;;;;;;;;;;5053983;28;20428;-87
2022/11/16 15:01:46;;;;;;;2.20;0.75;;;;;;;;;;5046902;28;20459;-87
2022/11/16 15:04:15;;;;;;;1.38;0.70;;;;;;;;;;5047678;28;20394;-87
2022/11/16 15:06:52;;;;;;;3.55;1.08;;;;;;;;;;5036673;28;20425;-87
2022/11/16 15:09:26;;;;;;;2.00;1.20;;;;;;;;;;5053638;28;20413;-86
2022/11/16 15:14:40;;;;;;;2.38;1.20;;;;;;;;;;5053551;28;20368;-86
2022/11/16 15:17:06;;;;;;;4.47;1.83;;;;;;;;;;5053194;28;20889;-86
2022/11/16 15:19:32;;;;;;;4.35;1.70;;;;;;;;;;5053434;28;20392;-87
2022/11/16 15:22:03;;;;;;;3.80;1.73;;;;;;;;;;5053201;28;20932;-87
2022/11/16 15:24:29;;;;;;;3.65;2.00;;;;;;;;;;5052194;28;20734;-87
2022/11/16 15:26:57;;;;;;;13.90;4.97;;;;;;;;;;5053285;28;20401;-86
2022/11/16 15:29:23;;;;;;;15.07;5.25;;;;;;;;;;5053218;28;20393;-87
2022/11/16 15:31:50;;;;;;;10.80;4.38;;;;;;;;;;5044279;28;20732;-86
2022/11/16 15:34:17;;;;;;;7.00;3.47;;;;;;;;;;5050405;28;20389;-87
2022/11/16 15:36:43;;;;;;;5.43;2.47;;;;;;;;;;5052988;28;20381;-86
2022/11/16 15:39:12;;;;;;;6.18;2.50;;;;;;;;;;5053188;28;20746;-87
2022/11/16 15:41:39;;;;;;;3.13;1.60;;;;;;;;;;5052790;28;20408;-87
2022/11/16 15:44:05;;;;;;;3.92;2.70;;;;;;;;;;5051699;28;20425;-88
2022/11/16 15:46:32;;;;;;;4.97;3.47;;;;;;;;;;5053037;28;20440;-87
2022/11/16 15:48:58;;;;;;;11.43;8.10;;;;;;;;;;5053170;28;20431;-88
2022/11/16 15:51:29;;;;;;;13.77;10.18;;;;;;;;;;5052452;28;20385;-87
2022/11/16 15:54:11;;;;;;;9.70;7.85;;;;;;;;;;5052606;28;20486;-87
2022/11/16 15:56:37;;;;;;;10.85;6.88;;;;;;;;;;5047578;28;20403;-88
2022/11/16 15:59:10;;;;;;;7.40;5.97;;;;;;;;;;5052666;28;20409;-86
2022/11/16 16:01:41;;;;;;;7.07;5.63;;;;;;;;;;5052193;28;20442;-87
2022/11/16 16:04:07;;;;;;;7.43;4.78;;;;;;;;;;5052539;28;20424;-88
2022/11/16 16:06:52;;;;;;;9.68;4.10;;;;;;;;;;5052269;28;20401;-87
2022/11/16 16:09:23;;;;;;;9.40;4.32;;;;;;;;;;5052289;28;20377;-87
2022/11/16 16:11:49;;;;;;;6.78;3.63;;;;;;;;;;5052075;28;20376;-87
2022/11/16 16:14:25;;;;;;;7.32;3.78;;;;;;;;;;5035877;28;20375;-86
2022/11/16 16:16:53;;;;;;;5.28;3.70;;;;;;;;;;5046179;28;20400;-87
2022/11/16 16:19:33;;;;;;;6.60;3.67;;;;;;;;;;5025508;28;20377;-86
2022/11/16 16:21:59;;;;;;;7.47;3.70;;;;;;;;;;5051702;28;20386;-87
2022/11/16 16:24:45;;;;;;;5.07;3.90;;;;;;;;;;5065881;28;20393;-85
2022/11/16 16:27:11;;;;;;;6.78;3.72;;;;;;;;;;5069709;28;20453;-83
2022/11/16 16:29:39;;;;;;;6.30;4.28;;;;;;;;;;5071208;28;20405;-84
2022/11/16 16:32:05;;;;;;;9.50;3.97;;;;;;;;;;5052789;28;20401;-86
2022/11/16 16:34:31;;;;;;;10.57;6.38;;;;;;;;;;5054982;28;20443;-86
2022/11/16 16:36:57;;;;;;;7.88;5.68;;;;;;;;;;5053882;28;20382;-86
2022/11/16 16:39:23;;;;;;;11.63;7.20;;;;;;;;;;5053636;28;20378;-86
2022/11/16 16:41:49;;;;;;;11.02;7.65;;;;;;;;;;5052395;28;20870;-86
2022/11/16 16:44:15;;;;;;;11.90;8.63;;;;;;;;;;5041212;28;20397;-86
2022/11/16 16:46:41;;;;;;;17.63;11.25;;;;;;;;;;5029281;28;20909;-87
2022/11/16 16:49:07;;;;;;;16.67;10.20;;;;;;;;;;5052268;28;20382;-87
2022/11/16 16:51:33;;;;;;;30.50;17.30;;;;;;;;;;5052210;28;20475;-86
2022/11/16 16:53:59;;;;;;;32.15;19.65;;;;;;;;;;5030133;28;20490;-85
2022/11/16 16:56:25;;;;;;;22.00;12.47;;;;;;;;;;5040412;28;20385;-84
2022/11/16 16:58:51;;;;;;;13.52;8.70;;;;;;;;;;5031506;28;20441;-84
2022/11/16 17:01:17;;;;;;;5.38;3.63;;;;;;;;;;5038994;28;20470;-85
2022/11/16 17:03:43;;;;;;;13.90;8.57;;;;;;;;;;5039709;28;20932;-85
2022/11/16 17:06:09;;;;;;;6.45;4.72;;;;;;;;;;5049827;28;20436;-84
2022/11/16 17:08:36;;;;;;;7.85;4.18;;;;;;;;;;5043678;28;20427;-84
2022/11/16 17:11:02;;;;;;;7.43;3.33;;;;;;;;;;5051920;28;20384;-85
2022/11/16 17:13:28;;;;;;;3.95;2.75;;;;;;;;;;5051927;28;20389;-84
2022/11/16 17:15:54;;;;;;;3.73;2.93;;;;;;;;;;5045767;28;20377;-84
2022/11/16 17:18:20;;;;;;;6.53;3.30;;;;;;;;;;5051827;28;20384;-84
2022/11/16 17:20:46;;;;;;;4.82;2.83;;;;;;;;;;5051580;28;20373;-85
2022/11/16 17:23:14;;;;;;;5.80;3.10;;;;;;;;;;5024967;28;20807;-83
2022/11/16 17:25:40;;;;;;;7.10;4.00;;;;;;;;;;5044563;28;20374;-83
2022/11/16 17:28:06;;;;;;;4.85;3.08;;;;;;;;;;5051680;28;20442;-81
2022/11/16 17:30:32;;;;;;;5.07;3.38;;;;;;;;;;5054225;28;21027;-81
2022/11/16 17:32:58;;;;;;;4.70;2.80;;;;;;;;;;5055356;28;20373;-81
2022/11/16 17:35:24;;;;;;;5.15;2.90;;;;;;;;;;5055308;28;20507;-81
2022/11/16 17:37:49;;;;;;;5.35;2.72;;;;;;;;;;5051463;28;20377;-81
2022/11/16 17:40:15;;;;;;;5.07;3.08;;;;;;;;;;5045613;28;20408;-80
2022/11/16 17:42:42;;;;;;;4.53;4.00;;;;;;;;;;5055062;28;20461;-80
2022/11/16 17:45:08;;;;;;;10.75;9.27;;;;;;;;;;5055124;28;20378;-82
2022/11/16 17:47:35;;;;;;;5.88;3.85;;;;;;;;;;5054438;28;20902;-82
2022/11/16 17:50:02;;;;;;;4.72;3.35;;;;;;;;;;5055385;28;20773;-83
2022/11/16 17:52:28;;;;;;;9.40;6.70;;;;;;;;;;5054897;28;20720;-82
2022/11/16 17:54:54;;;;;;;6.50;4.80;;;;;;;;;;5054906;28;20847;-81
2022/11/16 17:57:20;;;;;;;4.78;4.00;;;;;;;;;;5049917;28;20389;-82
2022/11/16 17:59:46;;;;;;;5.80;3.88;;;;;;;;;;5054928;28;20373;-82
2022/11/16 18:02:12;;;;;;;3.78;2.60;;;;;;;;;;5054522;28;20389;-82
2022/11/16 18:04:38;;;;;;;4.68;2.90;;;;;;;;;;5054690;28;20389;-82
2022/11/16 18:07:04;;;;;;;5.68;4.32;;;;;;;;;;5052526;28;20411;-82
2022/11/16 18:09:31;;;;;;;6.20;5.60;;;;;;;;;;5047569;28;20850;-83
2022/11/16 18:11:57;;;;;;;4.35;3.58;;;;;;;;;;5049644;28;20465;-82
2022/11/16 18:14:23;;;;;;;5.10;4.10;;;;;;;;;;5035272;28;20383;-82
2022/11/16 18:16:49;;;;;;;5.38;4.40;;;;;;;;;;5047695;28;20385;-81
2022/11/16 18:19:16;;;;;;;5.17;4.20;;;;;;;;;;5034014;28;20477;-81
2022/11/16 18:21:42;;;;;;;4.85;4.35;;;;;;;;;;5034432;28;20387;-82
2022/11/16 18:24:08;;;;;;;5.38;4.85;;;;;;;;;;5035824;28;20392;-82
2022/11/16 18:26:35;;;;;;;6.18;5.47;;;;;;;;;;5032438;28;20760;-82
2022/11/16 18:29:00;;;;;;;7.68;5.38;;;;;;;;;;5017277;28;20380;-83
2022/11/16 18:31:28;;;;;;;8.00;6.25;;;;;;;;;;5014806;28;20730;-85
2022/11/16 18:33:54;;;;;;;7.50;6.70;;;;;;;;;;5024829;28;20379;-83
2022/11/16 18:36:21;;;;;;;9.60;6.80;;;;;;;;;;5054408;28;20391;-82
2022/11/16 18:38:47;;;;;;;8.18;7.38;;;;;;;;;;5042750;28;20959;-82
2022/11/16 18:41:15;;;;;;;8.45;7.18;;;;;;;;;;5039213;28;20419;-83
2022/11/16 18:43:47;;;;;;;8.82;7.93;;;;;;;;;;5053953;28;20385;-82
2022/11/16 18:46:13;;;;;;;12.55;8.98;;;;;;;;;;5048909;28;20405;-82
2022/11/16 18:48:41;;;;;;;9.65;8.75;;;;;;;;;;5054039;28;20388;-83
2022/11/16 18:51:09;;;;;;;6.95;6.18;;;;;;;;;;5039854;28;20436;-84
2022/11/16 18:53:35;;;;;;;5.60;5.00;;;;;;;;;;5015628;28;20388;-84
2022/11/16 18:56:01;;;;;;;8.57;6.78;;;;;;;;;;5014918;28;20888;-84
2022/11/16 18:58:27;;;;;;;7.55;6.60;;;;;;;;;;5040740;28;20745;-84
2022/11/16 19:00:53;;;;;;;7.28;6.68;;;;;;;;;;5049091;28;20390;-84
2022/11/16 19:03:19;;;;;;;8.10;7.30;;;;;;;;;;5030305;28;20403;-84
2022/11/16 19:05:45;;;;;;;8.18;7.47;;;;;;;;;;5033368;28;20382;-84
2022/11/16 19:08:12;;;;;;;7.32;6.57;;;;;;;;;;5039024;28;20407;-84
2022/11/16 19:10:38;;;;;;;6.90;6.22;;;;;;;;;;5040653;28;20385;-84
2022/11/16 19:13:05;;;;;;;6.00;5.50;;;;;;;;;;5038283;28;20859;-84
2022/11/16 19:15:31;;;;;;;8.02;7.30;;;;;;;;;;5022056;28;20416;-83
2022/11/16 19:17:57;;;;;;;7.38;6.72;;;;;;;;;;5026402;28;20387;-86
2022/11/16 19:20:23;;;;;;;8.27;6.88;;;;;;;;;;5044667;28;20393;-85
2022/11/16 19:22:49;;;;;;;7.53;6.85;;;;;;;;;;5031951;28;20423;-84
2022/11/16 19:25:15;;;;;;;7.70;7.00;;;;;;;;;;5017091;28;20811;-87
2022/11/16 19:27:41;;;;;;;9.57;8.57;;;;;;;;;;5029142;28;20467;-85
2022/11/16 19:30:07;;;;;;;9.20;8.30;;;;;;;;;;5018720;28;20389;-86
2022/11/16 19:32:33;;;;;;;7.55;6.85;;;;;;;;;;5022023;28;20386;-85
2022/11/16 19:34:59;;;;;;;8.23;7.53;;;;;;;;;;5019516;28;20413;-85
2022/11/16 19:37:25;;;;;;;9.07;8.18;;;;;;;;;;5025451;28;20480;-85
2022/11/16 19:39:51;;;;;;;7.88;7.18;;;;;;;;;;5022182;28;20398;-85
2022/11/16 19:42:17;;;;;;;9.07;8.18;;;;;;;;;;5020320;28;20423;-85
2022/11/16 19:44:43;;;;;;;10.02;9.13;;;;;;;;;;5016530;28;20751;-85
2022/11/16 19:47:09;;;;;;;11.85;10.75;;;;;;;;;;5020284;28;20419;-85
2022/11/16 19:49:35;;;;;;;9.68;8.20;;;;;;;;;;5025328;28;20867;-84
2022/11/16 19:52:01;;;;;;;7.95;6.78;;;;;;;;;;5020778;28;20411;-83